PWSweather.com
Personal Weather Stations
Station Observations
CW9610
Rural Jefferson County, Mclouth, KS 66054

Rural Jefferson CountyMclouth, KS 66054

Lat: 39.1947, Lon: -95.238

Elevation: 1151

Station Type: Davis VP2

http://mclwx.info

Latest ConditionsUpdated 7:30:00 PM CDT Sunday, Mar 26, 2017
Currently Today's Max Today's Min Today's Average
Temperature 49.4°F9.7°C 51.0°F10.6°C 42.2°F5.7°C 45.5°F7.5°C
Dew Point 43.2°F6.2°C 43.7°F6.5°C 38.0°F3.3°C 40.2°F4.6°C
Winds 1.0 mph ENE1.6 kmh ENE 6.5 mph NW10.5 kmh NW - 2.8 mph 4.5 kmh
Wind Gusts 4.0 mph6.4 kmh 10.0 mph16.1 kmh - -
Humidity 79% 85% 76% 82%
Pressure 29.92 in1013.2 mb 29.92 in1013.2 mb 29.85 in1010.8 mb -
Precipitation - 0.01 in0.3 mm - -
Hour Temp Dew Point Humidity Winds Wind Gusts Pressure Precip Precip Rate Daily Precip Total
07:30 PM 49.4°F9.7°C 43.2°F6.2°C 79% 1.0 mph ENE1.6 kmh ENE 4.0 mph6.4 kmh 29.92 in1013.2 mb 0.00 in0.0 mm 0.00 in0.0 mm 0.01 in0.3 mm
07:00 PM 49.8°F9.9°C 43.2°F6.2°C 78% Calm Calm -- 29.91 in1012.9 mb 0.00 in0.0 mm 0.00 in0.0 mm 0.01 in0.3 mm
06:30 PM 49.5°F9.7°C 42.9°F6.1°C 78% 4.6 mph ENE7.4 kmh ENE 8.0 mph12.9 kmh 29.88 in1011.9 mb 0.00 in0.0 mm 0.00 in0.0 mm 0.01 in0.3 mm
06:00 PM 49.6°F9.8°C 43.0°F6.1°C 78% 4.1 mph NE6.6 kmh NE 8.0 mph12.9 kmh 29.86 in1011.2 mb 0.00 in0.0 mm 0.00 in0.0 mm 0.01 in0.3 mm
05:30 PM 50.1°F10.1°C 43.2°F6.2°C 77% 4.5 mph NE7.2 kmh NE 8.0 mph12.9 kmh 29.85 in1010.8 mb 0.00 in0.0 mm 0.00 in0.0 mm 0.01 in0.3 mm
05:00 PM 51.0°F10.6°C 43.7°F6.5°C 76% 2.4 mph NW3.9 kmh NW 7.0 mph11.3 kmh 29.85 in1010.8 mb 0.00 in0.0 mm 0.00 in0.0 mm 0.01 in0.3 mm
04:30 PM 50.3°F10.2°C 43.0°F6.1°C 76% 1.2 mph W1.9 kmh W 4.0 mph6.4 kmh 29.87 in1011.5 mb 0.00 in0.0 mm 0.00 in0.0 mm 0.01 in0.3 mm
04:00 PM 50.5°F10.3°C 43.2°F6.2°C 76% 1.4 mph W2.3 kmh W 3.0 mph4.8 kmh 29.88 in1011.9 mb 0.00 in0.0 mm 0.00 in0.0 mm 0.01 in0.3 mm
03:30 PM 50.0°F10.0°C 43.1°F6.2°C 77% 2.3 mph W3.7 kmh W 7.0 mph11.3 kmh 29.88 in1011.9 mb 0.00 in0.0 mm 0.00 in0.0 mm 0.01 in0.3 mm
03:00 PM 50.0°F10.0°C 42.7°F5.9°C 76% 1.7 mph W2.7 kmh W 4.0 mph6.4 kmh 29.89 in1012.2 mb 0.00 in0.0 mm 0.00 in0.0 mm 0.01 in0.3 mm
02:30 PM 49.2°F9.6°C 42.6°F5.9°C 78% 3.4 mph W5.5 kmh W 5.0 mph8.0 kmh 29.90 in1012.5 mb 0.00 in0.0 mm 0.00 in0.0 mm 0.01 in0.3 mm
02:00 PM 48.5°F9.2°C 42.3°F5.7°C 79% 2.0 mph W3.2 kmh W 5.0 mph8.0 kmh 29.91 in1012.9 mb 0.00 in0.0 mm 0.00 in0.0 mm 0.01 in0.3 mm
01:30 PM 48.3°F9.1°C 41.8°F5.4°C 78% 2.9 mph WSW4.7 kmh WSW 6.0 mph9.7 kmh 29.91 in1012.9 mb 0.00 in0.0 mm 0.00 in0.0 mm 0.01 in0.3 mm
01:00 PM 47.9°F8.8°C 41.7°F5.4°C 79% 1.4 mph WSW2.3 kmh WSW 4.0 mph6.4 kmh 29.91 in1012.9 mb 0.00 in0.0 mm 0.00 in0.0 mm 0.01 in0.3 mm
12:30 PM 47.2°F8.4°C 41.3°F5.2°C 80% 1.4 mph W2.3 kmh W 5.0 mph8.0 kmh 29.92 in1013.2 mb 0.00 in0.0 mm 0.00 in0.0 mm 0.01 in0.3 mm
12:00 PM 47.1°F8.4°C 41.2°F5.1°C 80% 2.9 mph WSW4.7 kmh WSW 7.0 mph11.3 kmh 29.92 in1013.2 mb 0.00 in0.0 mm 0.00 in0.0 mm 0.01 in0.3 mm
11:30 AM 46.7°F8.2°C 40.5°F4.7°C 79% 2.8 mph W4.5 kmh W 7.0 mph11.3 kmh 29.91 in1012.9 mb 0.00 in0.0 mm 0.00 in0.0 mm 0.01 in0.3 mm
11:00 AM 46.5°F8.1°C 40.7°F4.8°C 80% 2.1 mph WSW3.4 kmh WSW 6.0 mph9.7 kmh 29.92 in1013.2 mb 0.00 in0.0 mm 0.00 in0.0 mm 0.01 in0.3 mm
10:30 AM 45.4°F7.4°C 40.2°F4.6°C 82% 1.4 mph W2.3 kmh W 5.0 mph8.0 kmh 29.92 in1013.2 mb 0.00 in0.0 mm 0.00 in0.0 mm 0.01 in0.3 mm
10:00 AM 44.3°F6.8°C 39.8°F4.3°C 84% 2.5 mph WNW4.0 kmh WNW 5.0 mph8.0 kmh 29.91 in1012.9 mb 0.00 in0.0 mm 0.00 in0.0 mm 0.01 in0.3 mm
09:30 AM 43.7°F6.5°C 39.2°F4.0°C 84% 1.0 mph WNW1.6 kmh WNW 5.0 mph8.0 kmh 29.91 in1012.9 mb 0.00 in0.0 mm 0.00 in0.0 mm 0.01 in0.3 mm
09:00 AM 43.3°F6.3°C 39.1°F3.9°C 85% 1.0 mph WNW1.6 kmh WNW 4.0 mph6.4 kmh 29.91 in1012.9 mb 0.00 in0.0 mm 0.00 in0.0 mm 0.01 in0.3 mm
08:30 AM 42.9°F6.1°C 38.7°F3.7°C 85% 2.5 mph WNW4.0 kmh WNW 4.0 mph6.4 kmh 29.90 in1012.5 mb 0.00 in0.0 mm 0.00 in0.0 mm 0.01 in0.3 mm
08:00 AM 42.6°F5.9°C 38.4°F3.6°C 85% 2.9 mph WNW4.7 kmh WNW 5.0 mph8.0 kmh 29.88 in1011.9 mb 0.00 in0.0 mm 0.00 in0.0 mm 0.01 in0.3 mm
07:30 AM 42.2°F5.7°C 38.0°F3.3°C 85% 2.8 mph WNW4.5 kmh WNW 4.0 mph6.4 kmh 29.89 in1012.2 mb 0.00 in0.0 mm 0.00 in0.0 mm 0.01 in0.3 mm
07:00 AM 42.3°F5.7°C 38.1°F3.4°C 85% 2.7 mph WNW4.3 kmh WNW 5.0 mph8.0 kmh 29.89 in1012.2 mb 0.00 in0.0 mm 0.00 in0.0 mm 0.01 in0.3 mm
06:30 AM 42.4°F5.8°C 38.2°F3.4°C 85% 3.0 mph WNW4.8 kmh WNW 6.0 mph9.7 kmh 29.89 in1012.2 mb 0.00 in0.0 mm 0.00 in0.0 mm 0.01 in0.3 mm
06:00 AM 42.3°F5.7°C 38.1°F3.4°C 85% 2.6 mph WNW4.2 kmh WNW 5.0 mph8.0 kmh 29.89 in1012.2 mb 0.00 in0.0 mm 0.00 in0.0 mm 0.01 in0.3 mm
05:30 AM 42.3°F5.7°C 38.1°F3.4°C 85% 2.3 mph WNW3.7 kmh WNW 7.0 mph11.3 kmh 29.89 in1012.2 mb 0.00 in0.0 mm 0.00 in0.0 mm 0.01 in0.3 mm
05:00 AM 42.3°F5.7°C 38.1°F3.4°C 85% 3.0 mph WNW4.8 kmh WNW 6.0 mph9.7 kmh 29.88 in1011.9 mb 0.00 in0.0 mm 0.00 in0.0 mm 0.01 in0.3 mm
04:30 AM 42.4°F5.8°C 38.2°F3.4°C 85% 3.0 mph NW4.8 kmh NW 7.0 mph11.3 kmh 29.89 in1012.2 mb 0.00 in0.0 mm 0.00 in0.0 mm 0.01 in0.3 mm
04:00 AM 42.4°F5.8°C 38.2°F3.4°C 85% 3.5 mph NW5.6 kmh NW 6.0 mph9.7 kmh 29.88 in1011.9 mb 0.00 in0.0 mm 0.00 in0.0 mm 0.01 in0.3 mm
03:30 AM 42.3°F5.7°C 38.1°F3.4°C 85% 4.0 mph NW6.4 kmh NW 6.0 mph9.7 kmh 29.87 in1011.5 mb 0.00 in0.0 mm 0.00 in0.0 mm 0.01 in0.3 mm
03:00 AM 42.3°F5.7°C 38.1°F3.4°C 85% 3.8 mph NW6.1 kmh NW 6.0 mph9.7 kmh 29.87 in1011.5 mb 0.00 in0.0 mm 0.00 in0.0 mm 0.01 in0.3 mm
02:30 AM 42.3°F5.7°C 38.1°F3.4°C 85% 3.5 mph NW5.6 kmh NW 6.0 mph9.7 kmh 29.87 in1011.5 mb 0.00 in0.0 mm 0.00 in0.0 mm 0.01 in0.3 mm
02:00 AM 42.6°F5.9°C 38.4°F3.6°C 85% 2.7 mph NW4.3 kmh NW 6.0 mph9.7 kmh 29.87 in1011.5 mb 0.00 in0.0 mm 0.00 in0.0 mm 0.01 in0.3 mm
01:30 AM 42.4°F5.8°C 38.2°F3.4°C 85% 4.0 mph NW6.4 kmh NW 7.0 mph11.3 kmh 29.88 in1011.9 mb 0.00 in0.0 mm 0.00 in0.0 mm 0.01 in0.3 mm
01:00 AM 42.4°F5.8°C 38.2°F3.4°C 85% 5.4 mph NW8.7 kmh NW 8.0 mph12.9 kmh 29.88 in1011.9 mb 0.01 in0.3 mm 0.00 in0.0 mm 0.01 in0.3 mm
12:30 AM 42.4°F5.8°C 38.2°F3.4°C 85% 6.5 mph NW10.5 kmh NW 9.0 mph14.5 kmh 29.88 in1011.9 mb 0.01 in0.3 mm 0.02 in0.5 mm 0.01 in0.3 mm
12:00 AM 42.6°F5.9°C 38.1°F3.4°C 84% 6.2 mph NW10.0 kmh NW 10.0 mph16.1 kmh 29.88 in1011.9 mb 0.00 in0.0 mm 0.00 in0.0 mm 0.00 in0.0 mm